Time;durP1;ratioP1;P1;durP2;ratioP2;P2;SDS_P1;SDS_P2;PMS_P1;PMS_P2;Temp;Humidity;BMP_temperature;BMP_pressure;BME280_temperature;BME280_humidity;BME280_pressure;Samples;Min_cycle;Max_cycle;Signal;HPM_P1;HPM_P2
2022/05/22 00:01:26;;;;;;;8.57;4.30;;;;;;;;;;4954032;29;20382;-76
2022/05/22 00:03:52;;;;;;;13.88;4.95;;;;;;;;;;4954111;29;20051;-77
2022/05/22 00:06:18;;;;;;;12.95;5.35;;;;;;;;;;4954049;29;20377;-76
2022/05/22 00:08:44;;;;;;;11.02;5.00;;;;;;;;;;4953894;29;20775;-77
2022/05/22 00:11:11;;;;;;;13.32;6.10;;;;;;;;;;4953964;29;20046;-77
2022/05/22 00:13:37;;;;;;;9.40;5.10;;;;;;;;;;4954045;29;20023;-76
2022/05/22 00:18:48;;;;;;;15.75;5.22;;;;;;;;;;4953801;29;20104;-76
2022/05/22 00:21:14;;;;;;;20.83;5.78;;;;;;;;;;4955086;28;20027;-76
2022/05/22 00:23:40;;;;;;;9.13;4.85;;;;;;;;;;4973251;28;20401;-76
2022/05/22 00:26:06;;;;;;;14.95;5.18;;;;;;;;;;4972894;28;20034;-76
2022/05/22 00:28:32;;;;;;;15.38;4.63;;;;;;;;;;4972816;28;20023;-76
2022/05/22 00:30:58;;;;;;;8.25;4.03;;;;;;;;;;4973072;28;20027;-76
2022/05/22 00:33:24;;;;;;;11.63;4.25;;;;;;;;;;4973025;28;20058;-76
2022/05/22 00:35:50;;;;;;;10.02;3.72;;;;;;;;;;4972954;28;20027;-77
2022/05/22 00:38:16;;;;;;;17.17;5.05;;;;;;;;;;4973130;28;20042;-77
2022/05/22 00:40:42;;;;;;;12.30;5.10;;;;;;;;;;4972937;28;20023;-77
2022/05/22 00:43:23;;;;;;;10.50;4.57;;;;;;;;;;4974161;28;20023;-76
2022/05/22 00:45:49;;;;;;;7.90;3.90;;;;;;;;;;4976419;28;20409;-76
2022/05/22 00:48:15;;;;;;;13.40;4.10;;;;;;;;;;4976498;28;20129;-77
2022/05/22 00:50:41;;;;;;;9.35;4.43;;;;;;;;;;4958942;28;20110;-77
2022/05/22 00:53:07;;;;;;;9.52;3.60;;;;;;;;;;4976415;28;20098;-77
2022/05/22 00:55:34;;;;;;;9.68;4.03;;;;;;;;;;4976486;28;20027;-76
2022/05/22 00:58:05;;;;;;;6.78;3.33;;;;;;;;;;4976298;28;20022;-77
2022/05/22 01:00:33;;;;;;;8.13;4.18;;;;;;;;;;4976372;28;20035;-77
2022/05/22 01:05:46;;;;;;;7.60;3.83;;;;;;;;;;4976193;28;20053;-76
2022/05/22 01:08:12;;;;;;;11.18;4.47;;;;;;;;;;4976198;28;20037;-76
2022/05/22 01:10:54;;;;;;;9.20;4.22;;;;;;;;;;4976183;28;20038;-76
2022/05/22 01:13:22;;;;;;;11.52;4.22;;;;;;;;;;4976196;28;20105;-76
2022/05/22 01:15:49;;;;;;;15.20;4.35;;;;;;;;;;4976087;28;20045;-76
2022/05/22 01:18:15;;;;;;;14.02;4.65;;;;;;;;;;4976024;28;20114;-76
2022/05/22 01:20:48;;;;;;;10.25;4.07;;;;;;;;;;4975868;28;20031;-76
2022/05/22 01:23:14;;;;;;;10.63;4.30;;;;;;;;;;4975787;28;20077;-76
2022/05/22 01:25:40;;;;;;;10.82;4.10;;;;;;;;;;4975878;28;20023;-76
2022/05/22 01:28:08;;;;;;;12.18;4.60;;;;;;;;;;4975636;28;20042;-76
2022/05/22 01:30:34;;;;;;;11.45;4.13;;;;;;;;;;4975887;28;20496;-76
2022/05/22 01:33:00;;;;;;;11.10;4.05;;;;;;;;;;4975668;28;20493;-76
2022/05/22 01:35:28;;;;;;;8.10;4.22;;;;;;;;;;4976050;28;20027;-76
2022/05/22 01:37:56;;;;;;;8.80;4.05;;;;;;;;;;4975839;28;20133;-77
2022/05/22 01:40:22;;;;;;;9.60;3.90;;;;;;;;;;4975637;28;20035;-76
2022/05/22 01:42:48;;;;;;;8.38;4.13;;;;;;;;;;4975566;28;20035;-77
2022/05/22 01:45:22;;;;;;;9.05;4.10;;;;;;;;;;4975445;28;20039;-77
2022/05/22 01:47:48;;;;;;;8.88;4.18;;;;;;;;;;4975224;28;20063;-77
2022/05/22 01:50:15;;;;;;;9.10;4.15;;;;;;;;;;4975501;28;20031;-77
2022/05/22 01:52:41;;;;;;;12.18;4.45;;;;;;;;;;4975507;28;20015;-76
2022/05/22 01:55:08;;;;;;;12.20;4.45;;;;;;;;;;4954876;28;20057;-76
2022/05/22 01:57:34;;;;;;;6.75;3.83;;;;;;;;;;4956041;29;20617;-76
2022/05/22 02:00:00;;;;;;;9.63;4.55;;;;;;;;;;4955983;29;20032;-76
2022/05/22 02:02:26;;;;;;;12.18;4.30;;;;;;;;;;4955905;29;20031;-77
2022/05/22 02:04:53;;;;;;;8.77;4.32;;;;;;;;;;4955787;29;20031;-77
2022/05/22 02:10:05;;;;;;;11.40;4.13;;;;;;;;;;4955951;29;20050;-76
2022/05/22 02:12:31;;;;;;;10.60;4.18;;;;;;;;;;4955634;29;20020;-77
2022/05/22 02:14:57;;;;;;;9.80;4.53;;;;;;;;;;4955641;29;20027;-76
2022/05/22 02:17:24;;;;;;;8.43;3.83;;;;;;;;;;4955549;29;20035;-76
2022/05/22 02:19:50;;;;;;;11.13;3.70;;;;;;;;;;4957776;28;20031;-77
2022/05/22 02:22:16;;;;;;;9.60;3.53;;;;;;;;;;4974630;28;20046;-76
2022/05/22 02:24:42;;;;;;;8.02;3.40;;;;;;;;;;4957265;28;20034;-76
2022/05/22 02:27:08;;;;;;;13.52;3.55;;;;;;;;;;4974484;28;20089;-77
2022/05/22 02:29:34;;;;;;;9.95;3.33;;;;;;;;;;4974773;28;20117;-76
2022/05/22 02:32:00;;;;;;;6.88;3.33;;;;;;;;;;4974675;28;20531;-76
2022/05/22 02:34:26;;;;;;;9.75;3.60;;;;;;;;;;4974303;28;20541;-76
2022/05/22 02:36:52;;;;;;;6.05;3.28;;;;;;;;;;4974503;28;20039;-76
2022/05/22 02:39:18;;;;;;;10.18;4.25;;;;;;;;;;4974508;28;20026;-76
2022/05/22 02:41:45;;;;;;;9.65;3.10;;;;;;;;;;4974292;28;20388;-76
2022/05/22 02:44:11;;;;;;;7.50;3.05;;;;;;;;;;4974650;28;20029;-76
2022/05/22 02:46:37;;;;;;;7.45;3.58;;;;;;;;;;4974360;28;20038;-77
2022/05/22 02:49:04;;;;;;;11.98;3.80;;;;;;;;;;4974145;28;20058;-76
2022/05/22 02:51:30;;;;;;;6.70;3.55;;;;;;;;;;4974186;28;20031;-76
2022/05/22 02:53:56;;;;;;;7.70;3.55;;;;;;;;;;4974347;28;20025;-76
2022/05/22 02:56:23;;;;;;;8.32;3.50;;;;;;;;;;4974263;28;20568;-76
2022/05/22 02:58:49;;;;;;;7.63;3.35;;;;;;;;;;4974071;28;20034;-76
2022/05/22 03:01:15;;;;;;;7.95;3.55;;;;;;;;;;4956850;28;20105;-78
2022/05/22 03:03:41;;;;;;;6.80;3.65;;;;;;;;;;4974059;28;20031;-77
2022/05/22 03:08:52;;;;;;;14.00;3.85;;;;;;;;;;4974136;28;20110;-76
2022/05/22 03:11:18;;;;;;;8.93;4.03;;;;;;;;;;4974003;28;20091;-77
2022/05/22 03:13:45;;;;;;;7.53;3.30;;;;;;;;;;4973828;28;20031;-77
2022/05/22 03:16:11;;;;;;;12.15;3.38;;;;;;;;;;4973671;28;20034;-76
2022/05/22 03:18:37;;;;;;;7.93;3.10;;;;;;;;;;4973734;28;20022;-77
2022/05/22 03:21:03;;;;;;;11.40;4.03;;;;;;;;;;4961571;28;20166;-76
2022/05/22 03:23:29;;;;;;;10.48;3.35;;;;;;;;;;4972328;28;20038;-76
2022/05/22 03:25:55;;;;;;;7.63;3.28;;;;;;;;;;4973479;28;20041;-77
2022/05/22 03:28:23;;;;;;;6.63;3.42;;;;;;;;;;4973766;28;20092;-77
2022/05/22 03:30:49;;;;;;;7.15;3.72;;;;;;;;;;4973489;28;20466;-76
2022/05/22 03:33:15;;;;;;;8.90;3.55;;;;;;;;;;4973586;28;20039;-77
2022/05/22 03:35:42;;;;;;;12.77;4.65;;;;;;;;;;4973526;28;20030;-77
2022/05/22 03:38:08;;;;;;;9.15;3.60;;;;;;;;;;4973535;28;20406;-76
2022/05/22 03:40:47;;;;;;;10.25;3.30;;;;;;;;;;4973356;28;20035;-76
2022/05/22 03:43:14;;;;;;;15.55;4.22;;;;;;;;;;4973315;28;20027;-76
2022/05/22 03:45:40;;;;;;;10.02;3.83;;;;;;;;;;4973168;28;20031;-76
2022/05/22 03:48:06;;;;;;;8.15;3.63;;;;;;;;;;4973143;28;20051;-76
2022/05/22 03:50:32;;;;;;;7.88;3.70;;;;;;;;;;4955813;28;20023;-77
2022/05/22 03:52:58;;;;;;;7.10;3.50;;;;;;;;;;4971280;28;20026;-77
2022/05/22 03:55:25;;;;;;;10.98;3.83;;;;;;;;;;4954049;29;20424;-77
2022/05/22 03:57:51;;;;;;;10.55;3.65;;;;;;;;;;4953873;29;20537;-76
2022/05/22 04:00:18;;;;;;;9.32;3.63;;;;;;;;;;4954297;29;20382;-77
2022/05/22 04:02:45;;;;;;;7.15;3.50;;;;;;;;;;4953906;29;20781;-77
2022/05/22 04:05:11;;;;;;;8.18;4.35;;;;;;;;;;4953905;29;20062;-77
2022/05/22 04:07:38;;;;;;;8.05;3.22;;;;;;;;;;4954013;29;20171;-76
2022/05/22 04:10:04;;;;;;;12.38;3.90;;;;;;;;;;4953921;29;20139;-77
2022/05/22 04:12:30;;;;;;;9.43;3.58;;;;;;;;;;4953976;29;20031;-77
2022/05/22 04:14:56;;;;;;;5.13;3.03;;;;;;;;;;4954002;29;20023;-77
2022/05/22 04:17:22;;;;;;;7.53;3.45;;;;;;;;;;4953963;28;20426;-77
2022/05/22 04:19:48;;;;;;;7.82;3.35;;;;;;;;;;4957540;28;20027;-77
2022/05/22 04:22:14;;;;;;;9.48;3.42;;;;;;;;;;4957714;29;20031;-77
2022/05/22 04:27:25;;;;;;;5.72;3.30;;;;;;;;;;4957567;29;20430;-77
2022/05/22 04:29:51;;;;;;;7.13;3.38;;;;;;;;;;4957555;29;20026;-77
2022/05/22 04:32:17;;;;;;;7.82;3.08;;;;;;;;;;4957716;29;20032;-77
2022/05/22 04:34:43;;;;;;;8.32;3.22;;;;;;;;;;4957406;29;20031;-77
2022/05/22 04:37:09;;;;;;;8.43;3.33;;;;;;;;;;4957356;29;20114;-77
2022/05/22 04:39:35;;;;;;;8.50;3.33;;;;;;;;;;4957247;29;20025;-77
2022/05/22 04:42:01;;;;;;;6.07;3.40;;;;;;;;;;4957296;29;20734;-77
2022/05/22 04:44:27;;;;;;;9.43;4.05;;;;;;;;;;4957339;29;20024;-76
2022/05/22 04:46:53;;;;;;;10.32;3.80;;;;;;;;;;4957156;29;20031;-77
2022/05/22 04:49:19;;;;;;;10.48;3.88;;;;;;;;;;4957190;29;20074;-77
2022/05/22 04:51:46;;;;;;;7.35;3.53;;;;;;;;;;4957175;29;20023;-77
2022/05/22 04:54:12;;;;;;;9.52;3.63;;;;;;;;;;4968913;28;20014;-77
2022/05/22 04:56:39;;;;;;;6.55;3.50;;;;;;;;;;4976518;28;20539;-77
2022/05/22 04:59:05;;;;;;;9.20;2.88;;;;;;;;;;4976268;28;20026;-77
2022/05/22 05:01:31;;;;;;;5.43;3.53;;;;;;;;;;4958757;28;20481;-77
2022/05/22 05:03:57;;;;;;;6.38;3.45;;;;;;;;;;4976185;28;20034;-77
2022/05/22 05:06:23;;;;;;;11.07;3.70;;;;;;;;;;4976180;28;20035;-77
2022/05/22 05:08:49;;;;;;;10.20;4.03;;;;;;;;;;4976196;28;20035;-77
2022/05/22 05:11:15;;;;;;;6.97;3.28;;;;;;;;;;4975924;28;20041;-77
2022/05/22 05:13:41;;;;;;;8.48;3.20;;;;;;;;;;4976114;28;20031;-77
2022/05/22 05:16:09;;;;;;;10.73;3.65;;;;;;;;;;4975792;28;20038;-77
2022/05/22 05:18:36;;;;;;;7.88;3.78;;;;;;;;;;4975941;28;20031;-77
2022/05/22 05:21:03;;;;;;;8.55;3.80;;;;;;;;;;4975935;28;20027;-77
2022/05/22 05:23:29;;;;;;;6.35;3.80;;;;;;;;;;4956298;29;20086;-77
2022/05/22 05:25:56;;;;;;;8.93;4.20;;;;;;;;;;4956314;29;20063;-77
2022/05/22 05:28:22;;;;;;;10.85;4.45;;;;;;;;;;4956372;28;20031;-77
2022/05/22 05:30:48;;;;;;;8.77;4.05;;;;;;;;;;4956409;29;20078;-77
2022/05/22 05:33:14;;;;;;;11.70;4.22;;;;;;;;;;4956242;29;20031;-77
2022/05/22 05:35:41;;;;;;;8.23;3.65;;;;;;;;;;4939185;29;20065;-77
2022/05/22 05:38:07;;;;;;;11.15;4.20;;;;;;;;;;4956296;29;20335;-77
2022/05/22 05:40:34;;;;;;;12.70;4.53;;;;;;;;;;4956112;29;20029;-77
2022/05/22 05:43:01;;;;;;;11.63;4.20;;;;;;;;;;4956299;29;20027;-78
2022/05/22 05:45:27;;;;;;;10.35;4.78;;;;;;;;;;4956016;29;20039;-77
2022/05/22 05:47:53;;;;;;;9.35;4.32;;;;;;;;;;4955891;29;20055;-77
2022/05/22 05:50:21;;;;;;;7.32;3.90;;;;;;;;;;4956057;29;20030;-77
2022/05/22 05:52:48;;;;;;;11.60;4.43;;;;;;;;;;4955873;28;20614;-77
2022/05/22 05:55:14;;;;;;;11.65;3.80;;;;;;;;;;4955597;29;20058;-77
2022/05/22 05:57:40;;;;;;;13.30;4.07;;;;;;;;;;4958976;28;20022;-77
2022/05/22 06:00:07;;;;;;;12.25;3.90;;;;;;;;;;4974655;28;20049;-77
2022/05/22 06:02:33;;;;;;;14.18;4.13;;;;;;;;;;4974711;28;20042;-78
2022/05/22 06:04:59;;;;;;;9.60;3.25;;;;;;;;;;4974719;28;20109;-77
2022/05/22 06:07:25;;;;;;;11.77;3.58;;;;;;;;;;4974335;28;20573;-77
2022/05/22 06:09:52;;;;;;;12.05;3.25;;;;;;;;;;4974625;28;20051;-77
2022/05/22 06:12:18;;;;;;;14.40;3.35;;;;;;;;;;4974398;28;20022;-77
2022/05/22 06:14:44;;;;;;;12.43;3.40;;;;;;;;;;4974203;28;20035;-77
2022/05/22 06:17:10;;;;;;;12.02;3.53;;;;;;;;;;4974551;28;20031;-77
2022/05/22 06:19:56;;;;;;;12.07;3.60;;;;;;;;;;4973969;28;20462;-77
2022/05/22 06:22:23;;;;;;;12.98;3.90;;;;;;;;;;4965889;28;20029;-77
2022/05/22 06:24:49;;;;;;;9.10;3.80;;;;;;;;;;4974429;28;20393;-77
2022/05/22 06:27:15;;;;;;;10.25;3.90;;;;;;;;;;4957071;28;20030;-77
2022/05/22 06:29:42;;;;;;;12.75;4.22;;;;;;;;;;4974534;28;20450;-77
2022/05/22 06:32:11;;;;;;;9.15;3.17;;;;;;;;;;4974053;28;20023;-77
2022/05/22 06:34:41;;;;;;;10.07;3.70;;;;;;;;;;4973925;28;20037;-77
2022/05/22 06:37:07;;;;;;;10.55;3.10;;;;;;;;;;4971264;28;20026;-77
2022/05/22 06:39:51;;;;;;;12.73;2.75;;;;;;;;;;4973784;28;20565;-77
2022/05/22 06:42:22;;;;;;;8.15;2.55;;;;;;;;;;4972371;28;20536;-77
2022/05/22 06:45:01;;;;;;;14.77;2.63;;;;;;;;;;4971377;28;20027;-77
2022/05/22 06:47:28;;;;;;;13.95;2.60;;;;;;;;;;4973653;28;20015;-77
2022/05/22 06:49:54;;;;;;;7.72;1.80;;;;;;;;;;4973922;28;20078;-77
2022/05/22 06:52:20;;;;;;;7.97;2.15;;;;;;;;;;4974011;28;20031;-77
2022/05/22 06:54:46;;;;;;;10.73;2.38;;;;;;;;;;4973896;28;20027;-77
2022/05/22 06:57:15;;;;;;;14.20;2.30;;;;;;;;;;4973263;28;20038;-77
2022/05/22 06:59:42;;;;;;;7.22;1.92;;;;;;;;;;4955165;28;20351;-78
2022/05/22 07:02:08;;;;;;;11.80;2.40;;;;;;;;;;4955902;28;20424;-77
2022/05/22 07:04:34;;;;;;;9.63;2.50;;;;;;;;;;4973190;28;20050;-77
2022/05/22 07:07:00;;;;;;;7.40;1.95;;;;;;;;;;4972893;28;20386;-77
2022/05/22 07:09:26;;;;;;;5.38;2.10;;;;;;;;;;4973017;28;20030;-77
2022/05/22 07:11:55;;;;;;;8.65;1.95;;;;;;;;;;4972738;28;20418;-77
2022/05/22 07:14:22;;;;;;;8.82;1.88;;;;;;;;;;4972825;28;20493;-78
2022/05/22 07:16:48;;;;;;;7.82;1.88;;;;;;;;;;4973081;28;20035;-77
2022/05/22 07:19:16;;;;;;;6.07;1.20;;;;;;;;;;4955314;28;20026;-77
2022/05/22 07:21:42;;;;;;;8.95;1.38;;;;;;;;;;4971858;28;20030;-77
2022/05/22 07:24:08;;;;;;;7.20;1.17;;;;;;;;;;4972783;28;20016;-77
2022/05/22 07:26:34;;;;;;;3.42;0.93;;;;;;;;;;4972519;28;20867;-77
2022/05/22 07:29:01;;;;;;;3.28;0.82;;;;;;;;;;4966033;28;20043;-77
2022/05/22 07:31:27;;;;;;;6.65;1.20;;;;;;;;;;4962500;28;20016;-77
2022/05/22 07:33:54;;;;;;;6.00;1.35;;;;;;;;;;4962527;28;20098;-77
2022/05/22 07:36:20;;;;;;;7.07;0.98;;;;;;;;;;4963792;28;20095;-77
2022/05/22 07:38:47;;;;;;;6.18;1.08;;;;;;;;;;4963726;28;20023;-77
2022/05/22 07:41:13;;;;;;;4.25;1.20;;;;;;;;;;4962218;28;20035;-77
2022/05/22 07:43:40;;;;;;;5.28;0.80;;;;;;;;;;4961234;28;20021;-78
2022/05/22 07:46:06;;;;;;;4.93;1.00;;;;;;;;;;4958417;28;20110;-77
2022/05/22 07:48:32;;;;;;;5.65;1.33;;;;;;;;;;4961720;28;20481;-77
2022/05/22 07:50:59;;;;;;;6.07;1.17;;;;;;;;;;4962508;28;20030;-78
2022/05/22 07:53:26;;;;;;;7.63;0.90;;;;;;;;;;4964049;28;20023;-77
2022/05/22 07:55:52;;;;;;;4.82;0.90;;;;;;;;;;4955033;28;20018;-78
2022/05/22 07:58:19;;;;;;;7.00;1.00;;;;;;;;;;4972762;28;20029;-78
2022/05/22 08:00:45;;;;;;;5.68;1.10;;;;;;;;;;4972792;28;20118;-78
2022/05/22 08:03:13;;;;;;;7.90;1.00;;;;;;;;;;4954465;28;20034;-77
2022/05/22 08:05:39;;;;;;;4.53;1.10;;;;;;;;;;4972403;28;20081;-77
2022/05/22 08:08:06;;;;;;;7.00;0.90;;;;;;;;;;4972309;28;20062;-77
2022/05/22 08:10:32;;;;;;;5.43;0.93;;;;;;;;;;4972496;28;20035;-78
2022/05/22 08:12:58;;;;;;;5.68;1.25;;;;;;;;;;4972693;28;20030;-78
2022/05/22 08:15:26;;;;;;;3.65;1.00;;;;;;;;;;4972700;28;20468;-78
2022/05/22 08:17:52;;;;;;;5.32;0.90;;;;;;;;;;4973069;28;20034;-78
2022/05/22 08:20:20;;;;;;;4.30;0.90;;;;;;;;;;4966847;28;20103;-79
2022/05/22 08:22:47;;;;;;;6.45;1.02;;;;;;;;;;4953440;29;20035;-78
2022/05/22 08:25:15;;;;;;;5.95;0.90;;;;;;;;;;4953454;29;20039;-78
2022/05/22 08:27:41;;;;;;;5.13;0.93;;;;;;;;;;4953459;28;20102;-79
2022/05/22 08:30:08;;;;;;;7.20;1.15;;;;;;;;;;4970810;28;20062;-79
2022/05/22 08:32:40;;;;;;;4.95;1.02;;;;;;;;;;4972646;28;20033;-79
2022/05/22 08:35:07;;;;;;;5.07;1.40;;;;;;;;;;4972442;28;20085;-79
2022/05/22 08:37:34;;;;;;;4.70;1.02;;;;;;;;;;4972489;28;20034;-79
2022/05/22 08:40:00;;;;;;;3.35;1.02;;;;;;;;;;4971376;28;20589;-79
2022/05/22 08:42:36;;;;;;;6.95;1.30;;;;;;;;;;4972457;28;20389;-75
2022/05/22 08:45:05;;;;;;;9.43;1.63;;;;;;;;;;4972775;28;20102;-80
2022/05/22 08:47:39;;;;;;;4.20;0.98;;;;;;;;;;4973026;28;20473;-80
2022/05/22 08:50:07;;;;;;;4.95;0.93;;;;;;;;;;4972883;28;20047;-77
2022/05/22 08:52:43;;;;;;;5.53;0.90;;;;;;;;;;4972595;28;20027;-77
2022/05/22 08:58:56;;;;;;;4.07;0.70;;;;;;;;;;4952926;29;20566;-76
2022/05/22 09:01:09;;;;;;;4.72;1.05;;;;;;;;;;4953267;29;20382;-76
2022/05/22 09:04:11;;;;;;;4.88;1.00;;;;;;;;;;4953252;28;20070;-76
2022/05/22 09:06:44;;;;;;;5.18;1.02;;;;;;;;;;4877991;29;20096;-76
2022/05/22 09:09:10;;;;;;;5.15;1.20;;;;;;;;;;4867585;29;20094;-76
2022/05/22 09:11:41;;;;;;;5.22;1.08;;;;;;;;;;4868866;29;20100;-76
2022/05/22 09:14:24;;;;;;;5.68;1.17;;;;;;;;;;4869797;29;20040;-76
2022/05/22 09:16:56;;;;;;;3.88;0.90;;;;;;;;;;4867677;29;20026;-77
2022/05/22 09:19:30;;;;;;;4.90;1.00;;;;;;;;;;4868239;29;20060;-77
2022/05/22 09:22:02;;;;;;;4.18;0.80;;;;;;;;;;4869982;29;20457;-77
2022/05/22 09:24:35;;;;;;;2.65;0.68;;;;;;;;;;4867639;29;20034;-77
2022/05/22 09:27:11;;;;;;;8.35;0.90;;;;;;;;;;4872707;29;20580;-77
2022/05/22 09:29:40;;;;;;;4.95;1.25;;;;;;;;;;4878035;29;20033;-77
2022/05/22 09:32:24;;;;;;;5.25;0.90;;;;;;;;;;4878149;29;20029;-78
2022/05/22 09:34:58;;;;;;;3.88;0.50;;;;;;;;;;4878342;29;20115;-78
2022/05/22 09:37:24;;;;;;;4.38;0.73;;;;;;;;;;4878957;29;20471;-82
2022/05/22 09:39:59;;;;;;;3.60;0.63;;;;;;;;;;4897693;28;20117;-83
2022/05/22 09:42:43;;;;;;;3.13;0.63;;;;;;;;;;4956958;29;20042;-86
2022/05/22 09:45:09;;;;;;;4.88;0.60;;;;;;;;;;4956756;29;20023;-82
2022/05/22 09:47:38;;;;;;;4.88;1.08;;;;;;;;;;4957102;29;20031;-80
2022/05/22 09:50:20;;;;;;;2.03;0.80;;;;;;;;;;4971025;28;20121;-80
2022/05/22 09:52:51;;;;;;;4.28;0.70;;;;;;;;;;4974924;28;20066;-80
2022/05/22 09:55:26;;;;;;;6.38;1.00;;;;;;;;;;4974457;28;20050;-79
2022/05/22 09:57:58;;;;;;;2.08;0.57;;;;;;;;;;4958589;28;20407;-79
2022/05/22 10:00:24;;;;;;;;;;;;;;;;;;4973816;28;20066;-80
2022/05/22 10:02:50;;;;;;;3.72;0.75;;;;;;;;;;4975352;28;19946;-79
2022/05/22 10:05:16;;;;;;;2.92;0.68;;;;;;;;;;4974946;28;20026;-79
2022/05/22 10:07:49;;;;;;;5.68;1.00;;;;;;;;;;4957703;28;20031;-80
2022/05/22 10:10:24;;;;;;;4.10;0.70;;;;;;;;;;4975398;28;20043;-79
2022/05/22 10:12:58;;;;;;;1.58;0.60;;;;;;;;;;4975070;28;20378;-80
2022/05/22 10:15:27;;;;;;;9.68;1.52;;;;;;;;;;4975060;28;20034;-81
2022/05/22 10:18:12;;;;;;;9.95;1.40;;;;;;;;;;4977002;28;20026;-80
2022/05/22 10:20:50;;;;;;;3.67;0.80;;;;;;;;;;4966530;28;20042;-79
2022/05/22 10:23:36;;;;;;;3.05;0.60;;;;;;;;;;4955309;29;20058;-79
2022/05/22 10:26:04;;;;;;;3.78;0.63;;;;;;;;;;4955926;29;20027;-78
2022/05/22 10:28:36;;;;;;;2.92;0.65;;;;;;;;;;4955181;29;20495;-78
2022/05/22 10:31:08;;;;;;;5.15;0.80;;;;;;;;;;4938408;29;20059;-78
2022/05/22 10:33:53;;;;;;;3.85;0.90;;;;;;;;;;4955296;29;20038;-78
2022/05/22 10:36:22;;;;;;;2.70;0.60;;;;;;;;;;4955430;29;20372;-80
2022/05/22 10:38:52;;;;;;;5.70;0.80;;;;;;;;;;4955569;29;20041;-79
2022/05/22 10:44:06;;;;;;;6.38;0.93;;;;;;;;;;4974504;28;20121;-78
2022/05/22 10:46:32;;;;;;;6.15;0.98;;;;;;;;;;4956902;28;20122;-78
2022/05/22 10:48:58;;;;;;;2.30;0.60;;;;;;;;;;4973954;28;20043;-77
2022/05/22 10:51:25;;;;;;;2.85;0.60;;;;;;;;;;4974751;28;20041;-78
2022/05/22 10:53:59;;;;;;;1.73;0.70;;;;;;;;;;4965038;28;20030;-77
2022/05/22 10:56:33;;;;;;;4.70;0.57;;;;;;;;;;4962640;28;20023;-78
2022/05/22 10:59:08;;;;;;;1.58;0.75;;;;;;;;;;4973965;28;20041;-78
2022/05/22 11:01:35;;;;;;;4.10;0.95;;;;;;;;;;4974220;28;20030;-78
2022/05/22 11:04:05;;;;;;;3.17;0.88;;;;;;;;;;4973969;28;20019;-78
2022/05/22 11:06:32;;;;;;;4.13;0.80;;;;;;;;;;4974518;28;20023;-79
2022/05/22 11:08:58;;;;;;;5.75;1.05;;;;;;;;;;4973592;28;20077;-78
2022/05/22 11:11:35;;;;;;;4.93;0.82;;;;;;;;;;4973930;28;20046;-78
2022/05/22 11:14:07;;;;;;;3.08;0.80;;;;;;;;;;4973702;28;20029;-78
2022/05/22 11:16:33;;;;;;;2.10;0.50;;;;;;;;;;4973851;28;20034;-79
2022/05/22 11:19:14;;;;;;;5.53;0.80;;;;;;;;;;4974264;28;20464;-77
2022/05/22 11:21:55;;;;;;;3.78;0.80;;;;;;;;;;4972966;28;20023;-78
2022/05/22 11:24:30;;;;;;;6.25;0.80;;;;;;;;;;4974091;28;20058;-78
2022/05/22 11:27:19;;;;;;;5.38;0.90;;;;;;;;;;4973717;28;20122;-77
2022/05/22 11:29:58;;;;;;;2.92;1.00;;;;;;;;;;4956366;28;20393;-80
2022/05/22 11:32:43;;;;;;;2.95;0.88;;;;;;;;;;4974023;28;20117;-80
2022/05/22 11:35:29;;;;;;;3.03;0.82;;;;;;;;;;4956651;28;20418;-81
2022/05/22 11:38:08;;;;;;;3.35;1.08;;;;;;;;;;4973499;28;20054;-81
2022/05/22 11:40:44;;;;;;;3.05;1.10;;;;;;;;;;4968413;28;20023;-81
2022/05/22 11:43:13;;;;;;;3.83;0.88;;;;;;;;;;4954507;29;20034;-80
2022/05/22 11:46:12;;;;;;;3.50;0.90;;;;;;;;;;4954284;29;20106;-80
2022/05/22 11:48:48;;;;;;;7.03;1.10;;;;;;;;;;4876463;29;20128;-81
2022/05/22 11:51:33;;;;;;;5.55;0.88;;;;;;;;;;4876414;29;20040;-80
2022/05/22 11:54:14;;;;;;;3.13;0.73;;;;;;;;;;4876645;29;20036;-81
2022/05/22 11:56:43;;;;;;;5.18;0.82;;;;;;;;;;4876643;29;20644;-81
2022/05/22 11:59:18;;;;;;;4.90;1.10;;;;;;;;;;4876525;29;20143;-81
2022/05/22 12:01:55;;;;;;;3.90;0.90;;;;;;;;;;4876659;29;20033;-81
2022/05/22 12:04:36;;;;;;;4.15;1.40;;;;;;;;;;4876504;29;20144;-81
2022/05/22 12:07:25;;;;;;;4.10;0.70;;;;;;;;;;4876506;29;20077;-81
2022/05/22 12:09:54;;;;;;;2.97;0.80;;;;;;;;;;4875997;29;20037;-81
2022/05/22 12:12:29;;;;;;;4.07;0.77;;;;;;;;;;4875942;29;20037;-81
2022/05/22 12:15:13;;;;;;;4.38;0.90;;;;;;;;;;4875577;29;20521;-81
2022/05/22 12:17:44;;;;;;;4.00;0.80;;;;;;;;;;4875144;29;20040;-81
2022/05/22 12:20:16;;;;;;;5.25;1.00;;;;;;;;;;4874822;29;20190;-81
2022/05/22 12:25:27;;;;;;;3.20;1.00;;;;;;;;;;4912436;29;20377;-80
2022/05/22 12:27:54;;;;;;;4.65;1.30;;;;;;;;;;4912449;29;20044;-81
2022/05/22 12:30:29;;;;;;;4.35;1.02;;;;;;;;;;4932115;29;20110;-77
2022/05/22 12:32:58;;;;;;;5.03;1.23;;;;;;;;;;4938787;29;20478;-78
2022/05/22 12:35:24;;;;;;;6.00;1.33;;;;;;;;;;4931246;29;20040;-76
2022/05/22 12:38:04;;;;;;;2.50;0.90;;;;;;;;;;4930726;29;20047;-77
2022/05/22 12:40:35;;;;;;;3.33;1.10;;;;;;;;;;4933191;29;20052;-78
2022/05/22 12:43:03;;;;;;;7.63;1.50;;;;;;;;;;4934448;29;20046;-77
2022/05/22 12:45:38;;;;;;;5.10;1.30;;;;;;;;;;4934604;29;20246;-78
2022/05/22 12:48:24;;;;;;;4.72;0.95;;;;;;;;;;4969651;28;20053;-78
2022/05/22 12:51:06;;;;;;;3.17;1.35;;;;;;;;;;4964278;28;20026;-77
2022/05/22 12:53:39;;;;;;;3.00;1.13;;;;;;;;;;4971710;28;20023;-76
2022/05/22 12:56:38;;;;;;;4.95;1.33;;;;;;;;;;4957439;28;20034;-80
2022/05/22 12:59:06;;;;;;;5.00;1.75;;;;;;;;;;4872178;29;20045;-81
2022/05/22 13:01:37;;;;;;;6.60;1.52;;;;;;;;;;4879094;29;20036;-80
2022/05/22 13:04:07;;;;;;;6.45;1.38;;;;;;;;;;4878426;29;20056;-80
2022/05/22 13:06:33;;;;;;;7.00;1.65;;;;;;;;;;4878401;29;20408;-81
2022/05/22 13:09:08;;;;;;;5.53;1.20;;;;;;;;;;4872615;29;20117;-80
2022/05/22 13:11:45;;;;;;;3.53;1.25;;;;;;;;;;4873864;29;20093;-80
2022/05/22 13:14:26;;;;;;;5.13;1.65;;;;;;;;;;4871484;29;20029;-81
2022/05/22 13:16:53;;;;;;;6.37;1.67;;;;;;;;;;4870667;29;20029;-77
2022/05/22 13:19:23;;;;;;;5.63;1.58;;;;;;;;;;4870930;29;20195;-78
2022/05/22 13:21:51;;;;;;;5.35;1.63;;;;;;;;;;4873588;29;20041;-83
2022/05/22 13:24:17;;;;;;;7.55;1.65;;;;;;;;;;4876291;29;20598;-82
2022/05/22 13:26:55;;;;;;;4.38;1.55;;;;;;;;;;4879864;29;20097;-78
2022/05/22 13:29:22;;;;;;;4.22;1.50;;;;;;;;;;4876298;29;20040;-79
2022/05/22 13:31:50;;;;;;;4.85;1.20;;;;;;;;;;4879184;29;20142;-79
2022/05/22 13:34:20;;;;;;;4.55;1.30;;;;;;;;;;4913382;28;20030;-80
2022/05/22 13:37:06;;;;;;;3.78;1.20;;;;;;;;;;4977258;28;20462;-79
2022/05/22 13:39:40;;;;;;;3.47;1.10;;;;;;;;;;4971821;28;20037;-79
2022/05/22 13:42:35;;;;;;;2.78;0.95;;;;;;;;;;4977520;28;20077;-80
2022/05/22 13:45:12;;;;;;;3.53;1.27;;;;;;;;;;4978046;28;20425;-80
2022/05/22 13:47:47;;;;;;;10.18;1.55;;;;;;;;;;4976988;28;20458;-82
2022/05/22 13:53:35;;;;;;;6.20;1.60;;;;;;;;;;4971494;28;20537;-82
2022/05/22 13:56:01;;;;;;;2.22;1.13;;;;;;;;;;4966902;28;20104;-82
2022/05/22 13:58:38;;;;;;;8.05;1.30;;;;;;;;;;4970457;28;20035;-82
2022/05/22 14:01:15;;;;;;;3.47;1.17;;;;;;;;;;4974554;28;20473;-83
2022/05/22 14:03:47;;;;;;;7.07;1.67;;;;;;;;;;4965479;28;20501;-82
2022/05/22 14:06:14;;;;;;;4.65;1.67;;;;;;;;;;4963383;28;20111;-83
2022/05/22 14:08:42;;;;;;;3.83;1.38;;;;;;;;;;4964589;28;20019;-83
2022/05/22 14:11:12;;;;;;;3.75;1.60;;;;;;;;;;4968880;28;20019;-83
2022/05/22 14:13:49;;;;;;;2.72;1.25;;;;;;;;;;4969459;28;20027;-84
2022/05/22 14:16:20;;;;;;;3.30;1.60;;;;;;;;;;4968717;28;20027;-86
2022/05/22 14:18:57;;;;;;;5.88;1.45;;;;;;;;;;4964865;28;20058;-83
2022/05/22 14:21:24;;;;;;;4.97;1.92;;;;;;;;;;4972223;28;20023;-82
2022/05/22 14:26:35;;;;;;;5.97;1.50;;;;;;;;;;4963745;28;20046;-83
2022/05/22 14:29:01;;;;;;;4.07;1.23;;;;;;;;;;4966085;28;20019;-85
2022/05/22 14:31:30;;;;;;;8.88;1.45;;;;;;;;;;4965845;28;20035;-84
2022/05/22 14:33:58;;;;;;;4.95;1.27;;;;;;;;;;4962072;28;20030;-83
2022/05/22 14:36:24;;;;;;;5.20;1.50;;;;;;;;;;4967791;28;20042;-86
2022/05/22 14:38:51;;;;;;;4.07;1.17;;;;;;;;;;4969624;28;20044;-84
2022/05/22 14:41:19;;;;;;;2.88;1.27;;;;;;;;;;4967831;28;20049;-75
2022/05/22 14:43:53;;;;;;;5.63;1.60;;;;;;;;;;4955400;28;20041;-74
2022/05/22 14:46:28;;;;;;;4.95;1.60;;;;;;;;;;4966278;28;20031;-75
2022/05/22 14:48:57;;;;;;;5.07;1.40;;;;;;;;;;4962552;28;20209;-74
2022/05/22 14:51:26;;;;;;;3.85;1.30;;;;;;;;;;4967603;28;20030;-76
2022/05/22 14:53:59;;;;;;;4.18;1.70;;;;;;;;;;4973772;28;20023;-76
2022/05/22 14:56:25;;;;;;;3.92;1.40;;;;;;;;;;4972931;28;20162;-76
2022/05/22 14:58:51;;;;;;;4.25;1.60;;;;;;;;;;4973659;28;20014;-74
2022/05/22 15:01:25;;;;;;;4.25;1.40;;;;;;;;;;4973349;28;20038;-74
2022/05/22 15:03:52;;;;;;;3.60;1.40;;;;;;;;;;4972896;28;20485;-74
2022/05/22 15:06:23;;;;;;;5.30;1.80;;;;;;;;;;4973156;28;20026;-74
2022/05/22 15:08:52;;;;;;;4.63;1.55;;;;;;;;;;4973453;28;20038;-74
2022/05/22 15:11:26;;;;;;;5.45;1.70;;;;;;;;;;4973267;28;20050;-74
2022/05/22 15:13:55;;;;;;;5.55;1.73;;;;;;;;;;4956043;28;20019;-74
2022/05/22 15:16:22;;;;;;;8.13;2.22;;;;;;;;;;4973377;28;20042;-74
2022/05/22 15:21:36;;;;;;;4.22;2.03;;;;;;;;;;4968342;28;20125;-76
2022/05/22 15:26:49;;;;;;;8.73;2.30;;;;;;;;;;4974105;28;20401;-74
2022/05/22 15:29:33;;;;;;;3.63;1.77;;;;;;;;;;4970163;28;20034;-75